createdAt,value
2022-10-05T00:00:58.755Z,80.18
2022-10-05T00:03:39.362Z,80.24
2022-10-05T00:06:09.611Z,80.28
2022-10-05T00:08:37.275Z,80.10
2022-10-05T00:11:07.956Z,80.16
2022-10-05T00:13:36.291Z,80.17
2022-10-05T00:16:14.806Z,80.26
2022-10-05T00:18:47.542Z,80.24
2022-10-05T00:21:21.291Z,80.25
2022-10-05T00:23:48.800Z,80.44
2022-10-05T00:26:22.568Z,80.34
2022-10-05T00:28:50.701Z,80.37
2022-10-05T00:31:24.280Z,80.30
2022-10-05T00:33:51.675Z,80.45
2022-10-05T00:36:19.655Z,80.64
2022-10-05T00:38:46.443Z,80.69
2022-10-05T00:41:43.896Z,80.78
2022-10-05T00:44:25.498Z,80.91
2022-10-05T00:47:28.179Z,80.89
2022-10-05T00:50:36.614Z,81.08
2022-10-05T00:53:25.576Z,81.21
2022-10-05T00:56:22.102Z,81.40
2022-10-05T00:58:58.069Z,81.42
2022-10-05T01:01:44.075Z,81.52
2022-10-05T01:04:37.744Z,81.85
2022-10-05T01:07:48.026Z,81.70
2022-10-05T01:10:29.678Z,82.02
2022-10-05T01:13:27.095Z,82.01
2022-10-05T01:16:13.750Z,82.02
2022-10-05T01:18:59.573Z,82.04
2022-10-05T01:21:28.130Z,82.05
2022-10-05T01:24:27.798Z,82.10
2022-10-05T01:27:00.726Z,82.21
2022-10-05T01:29:43.434Z,82.20
2022-10-05T01:32:19.041Z,82.33
2022-10-05T01:35:00.514Z,82.38
2022-10-05T01:37:57.591Z,82.40
2022-10-05T01:40:27.325Z,82.49
2022-10-05T01:43:06.251Z,82.60
2022-10-05T01:45:59.545Z,82.76
2022-10-05T01:49:06.133Z,82.93
2022-10-05T01:52:12.182Z,82.96
2022-10-05T01:55:00.767Z,82.99
2022-10-05T01:57:42.321Z,83.09
2022-10-05T02:00:14.864Z,83.16
2022-10-05T02:02:50.204Z,83.11
2022-10-05T02:05:45.152Z,83.10
2022-10-05T02:08:27.139Z,83.05
2022-10-05T02:11:09.061Z,83.01
2022-10-05T02:14:07.158Z,83.11
2022-10-05T02:17:01.600Z,83.18
2022-10-05T02:19:41.233Z,83.19
2022-10-05T02:22:30.544Z,83.18
2022-10-05T02:25:00.833Z,83.10
2022-10-05T02:28:17.975Z,83.09
2022-10-05T02:30:51.712Z,83.06
2022-10-05T02:33:32.051Z,83.18
2022-10-05T02:36:15.404Z,83.00
2022-10-05T02:39:00.089Z,83.00
2022-10-05T02:41:52.755Z,83.11
2022-10-05T02:44:24.089Z,83.10
2022-10-05T02:46:58.301Z,83.06
2022-10-05T02:50:00.784Z,83.14
2022-10-05T02:52:37.470Z,83.16
2022-10-05T02:55:19.413Z,83.01
2022-10-05T02:57:49.189Z,83.01
2022-10-05T03:00:20.017Z,83.02
2022-10-05T03:03:01.122Z,83.07
2022-10-05T03:05:37.219Z,83.14
2022-10-05T03:08:28.366Z,83.06
2022-10-05T03:11:16.694Z,83.13
2022-10-05T03:14:11.895Z,83.10
2022-10-05T03:17:05.895Z,83.16
2022-10-05T03:19:50.119Z,83.22
2022-10-05T03:22:46.427Z,83.17
2022-10-05T03:25:47.196Z,83.26
2022-10-05T03:28:40.495Z,83.22
2022-10-05T03:31:28.382Z,83.14
2022-10-05T03:34:05.725Z,83.14
2022-10-05T03:36:37.844Z,83.21
2022-10-05T03:39:34.586Z,83.18
2022-10-05T03:42:15.970Z,83.15
2022-10-05T03:44:49.843Z,83.13
2022-10-05T03:47:35.536Z,83.15
2022-10-05T03:50:23.369Z,83.03
2022-10-05T03:53:05.721Z,83.08
2022-10-05T03:55:56.976Z,83.01
2022-10-05T03:58:28.380Z,83.04
2022-10-05T04:01:06.641Z,82.87
2022-10-05T04:03:48.120Z,82.82
2022-10-05T04:06:33.526Z,82.85
2022-10-05T04:09:45.888Z,82.89
2022-10-05T04:12:42.249Z,82.88
2022-10-05T04:15:27.144Z,82.79
2022-10-05T04:18:26.686Z,82.64
2022-10-05T04:20:58.850Z,82.66
2022-10-05T04:23:39.345Z,82.71
2022-10-05T04:26:12.108Z,82.54
2022-10-05T04:29:04.016Z,82.63
2022-10-05T04:31:59.205Z,82.64
2022-10-05T04:34:59.131Z,82.59
2022-10-05T04:37:49.830Z,82.58
2022-10-05T04:40:34.547Z,82.47
2022-10-05T04:43:39.860Z,82.40
2022-10-05T04:46:31.425Z,82.44
2022-10-05T04:49:13.729Z,82.40
2022-10-05T04:52:23.632Z,82.41
2022-10-05T04:55:29.447Z,82.31
2022-10-05T04:58:09.707Z,82.25
2022-10-05T05:00:53.332Z,82.18
2022-10-05T05:03:46.468Z,82.25
2022-10-05T05:07:00.518Z,82.21
2022-10-05T05:09:49.178Z,83.41
2022-10-05T05:12:36.364Z,85.33
2022-10-05T05:16:02.105Z,84.74
2022-10-05T05:19:04.019Z,83.60
2022-10-05T05:22:08.001Z,83.44
2022-10-05T05:25:34.809Z,83.32
2022-10-05T05:28:13.964Z,82.63
2022-10-05T05:31:16.371Z,82.35
2022-10-05T05:34:16.302Z,81.92
2022-10-05T05:36:52.998Z,81.17
2022-10-05T05:39:50.813Z,80.58
2022-10-05T05:42:38.880Z,80.31
2022-10-05T05:45:26.010Z,80.23
2022-10-05T05:47:56.782Z,80.05
2022-10-05T05:50:45.537Z,79.88
2022-10-05T05:53:26.712Z,79.89
2022-10-05T05:56:00.280Z,79.80
2022-10-05T05:58:38.199Z,79.75
2022-10-05T06:01:36.418Z,79.71
2022-10-05T06:04:16.614Z,79.85
2022-10-05T06:06:50.596Z,79.64
2022-10-05T06:09:40.927Z,79.80
2022-10-05T06:12:45.621Z,79.56
2022-10-05T06:15:41.666Z,79.41
2022-10-05T06:18:16.357Z,79.00
2022-10-05T06:20:59.522Z,78.58
2022-10-05T06:23:38.598Z,78.55
2022-10-05T06:26:24.897Z,78.23
2022-10-05T06:29:05.744Z,78.05
2022-10-05T06:32:13.257Z,77.93
2022-10-05T06:35:18.930Z,77.43
2022-10-05T06:38:19.376Z,77.31
2022-10-05T06:41:20.101Z,77.22
2022-10-05T06:44:00.980Z,77.11
2022-10-05T06:47:16.521Z,76.66
2022-10-05T06:50:26.392Z,76.63
2022-10-05T06:53:11.037Z,76.76
2022-10-05T06:55:51.757Z,76.52
2022-10-05T06:58:42.466Z,76.35
2022-10-05T07:01:41.245Z,76.18
2022-10-05T07:04:24.007Z,76.00
2022-10-05T07:06:59.583Z,76.05
2022-10-05T07:09:53.483Z,75.77
2022-10-05T07:12:47.904Z,75.61
2022-10-05T07:15:39.858Z,75.50
2022-10-05T07:18:31.684Z,75.22
2022-10-05T07:21:03.499Z,74.95
2022-10-05T07:23:50.399Z,74.96
2022-10-05T07:26:34.225Z,74.79
2022-10-05T07:29:27.521Z,74.65
2022-10-05T07:32:05.181Z,75.42
2022-10-05T07:35:30.858Z,75.98
2022-10-05T07:38:07.533Z,75.56
2022-10-05T07:40:44.574Z,74.88
2022-10-05T07:44:01.436Z,73.71
2022-10-05T07:47:03.030Z,73.31
2022-10-05T07:49:59.078Z,73.17
2022-10-05T07:52:39.892Z,73.00
2022-10-05T07:55:21.773Z,73.03
2022-10-05T07:58:09.484Z,72.65
2022-10-05T08:01:33.907Z,72.27
2022-10-05T08:04:13.839Z,72.19
2022-10-05T08:06:52.188Z,72.16
2022-10-05T08:09:35.812Z,72.06
2022-10-05T08:12:22.572Z,71.91
2022-10-05T08:14:57.707Z,71.93
2022-10-05T08:17:50.329Z,71.69
2022-10-05T08:20:39.968Z,71.33
2022-10-05T08:23:20.404Z,71.24
2022-10-05T08:26:11.951Z,70.89
2022-10-05T08:28:52.070Z,70.91
2022-10-05T08:31:27.079Z,70.71
2022-10-05T08:34:22.264Z,70.52
2022-10-05T08:37:32.797Z,70.34
2022-10-05T08:40:31.789Z,70.02
2022-10-05T08:43:25.690Z,69.92
2022-10-05T08:46:07.722Z,69.67
2022-10-05T08:49:25.778Z,69.35
2022-10-05T08:52:25.593Z,69.03
2022-10-05T08:55:53.400Z,68.86
2022-10-05T08:58:37.497Z,68.50
2022-10-05T09:01:06.755Z,68.17
2022-10-05T09:04:04.395Z,68.08
2022-10-05T09:07:09.417Z,67.73
2022-10-05T09:09:49.790Z,67.56
2022-10-05T09:12:47.126Z,67.33
2022-10-05T09:15:35.938Z,67.08
2022-10-05T09:18:49.464Z,67.05
2022-10-05T09:21:54.568Z,66.54
2022-10-05T09:24:31.983Z,66.47
2022-10-05T09:27:30.195Z,66.48
2022-10-05T09:30:30.183Z,65.89
2022-10-05T09:33:41.024Z,65.73
2022-10-05T09:36:29.697Z,65.81
2022-10-05T09:39:19.633Z,65.60
2022-10-05T09:41:58.563Z,65.35
2022-10-05T09:44:56.492Z,65.29
2022-10-05T09:47:50.583Z,64.80
2022-10-05T09:51:01.890Z,64.67
2022-10-05T09:54:10.218Z,64.41
2022-10-05T09:57:03.863Z,64.13
2022-10-05T09:59:37.923Z,64.04
2022-10-05T10:02:28.781Z,64.04
2022-10-05T10:05:29.454Z,64.08
2022-10-05T10:08:12.750Z,63.90
2022-10-05T10:11:10.202Z,63.28
2022-10-05T10:14:00.246Z,63.27
2022-10-05T10:17:08.119Z,63.11
2022-10-05T10:20:13.537Z,63.11
2022-10-05T10:23:19.486Z,62.94
2022-10-05T10:25:51.895Z,62.91
2022-10-05T10:28:49.033Z,62.68
2022-10-05T10:31:58.062Z,62.56
2022-10-05T10:34:53.080Z,62.52
2022-10-05T10:37:36.649Z,62.52
2022-10-05T10:40:42.294Z,62.27
2022-10-05T10:43:41.700Z,61.85
2022-10-05T10:46:25.196Z,61.68
2022-10-05T10:49:28.725Z,61.40
2022-10-05T10:52:13.358Z,61.03
2022-10-05T10:55:15.044Z,60.89
2022-10-05T10:58:12.418Z,60.82
2022-10-05T11:00:53.826Z,60.69
2022-10-05T11:03:55.972Z,60.57
2022-10-05T11:06:48.467Z,60.22
2022-10-05T11:09:59.501Z,60.33
2022-10-05T11:13:08.016Z,60.17
2022-10-05T11:16:15.836Z,59.76
2022-10-05T11:19:35.073Z,59.71
2022-10-05T11:22:40.422Z,59.40
2022-10-05T11:25:29.191Z,59.33
2022-10-05T11:28:30.622Z,59.28
2022-10-05T11:31:25.038Z,59.05
2022-10-05T11:34:25.446Z,59.04
2022-10-05T11:37:19.366Z,58.70
2022-10-05T11:40:09.055Z,58.30
2022-10-05T11:43:15.775Z,58.06
2022-10-05T11:46:04.974Z,58.17
2022-10-05T11:48:55.205Z,58.06
2022-10-05T11:51:50.715Z,57.66
2022-10-05T11:55:05.797Z,57.60
2022-10-05T11:57:56.057Z,57.06
2022-10-05T12:00:32.071Z,57.08
2022-10-05T12:03:37.943Z,57.09
2022-10-05T12:06:26.879Z,56.76
2022-10-05T12:09:06.723Z,56.63
2022-10-05T12:12:02.633Z,56.57
2022-10-05T12:15:04.220Z,56.31
2022-10-05T12:17:56.186Z,55.90
2022-10-05T12:20:37.747Z,55.51
2022-10-05T12:23:20.979Z,55.71
2022-10-05T12:25:58.085Z,55.74
2022-10-05T12:28:35.779Z,55.66
2022-10-05T12:31:41.329Z,55.53
2022-10-05T12:34:17.843Z,55.36
2022-10-05T12:37:05.188Z,55.14
2022-10-05T12:39:53.053Z,55.13
2022-10-05T12:42:43.205Z,54.87
2022-10-05T12:45:28.407Z,54.89
2022-10-05T12:48:15.777Z,55.00
2022-10-05T12:51:16.783Z,54.81
2022-10-05T12:53:56.931Z,54.55
2022-10-05T12:56:44.094Z,54.53
2022-10-05T12:59:22.328Z,54.60
2022-10-05T13:01:53.943Z,54.63
2022-10-05T13:04:36.240Z,54.41
2022-10-05T13:07:12.785Z,54.40
2022-10-05T13:10:08.486Z,54.26
2022-10-05T13:12:46.521Z,53.90
2022-10-05T13:15:22.916Z,53.74
2022-10-05T13:17:49.594Z,53.83
2022-10-05T13:20:29.130Z,53.77
2022-10-05T13:23:20.435Z,53.77
2022-10-05T13:26:01.201Z,53.68
2022-10-05T13:28:56.822Z,53.58
2022-10-05T13:31:28.905Z,53.45
2022-10-05T13:34:21.354Z,53.31
2022-10-05T13:37:33.710Z,53.05
2022-10-05T13:40:36.799Z,53.19
2022-10-05T13:43:21.991Z,53.08
2022-10-05T13:46:06.418Z,52.78
2022-10-05T13:49:00.996Z,53.03
2022-10-05T13:51:54.548Z,52.93
2022-10-05T13:54:38.136Z,52.93
2022-10-05T13:57:13.159Z,52.93
2022-10-05T13:59:52.079Z,52.56
2022-10-05T14:02:26.821Z,52.57
2022-10-05T14:05:22.071Z,52.72
2022-10-05T14:08:15.280Z,52.66
2022-10-05T14:10:44.615Z,52.59
2022-10-05T14:13:26.189Z,52.59
2022-10-05T14:16:21.486Z,52.47
2022-10-05T14:19:14.111Z,52.45
2022-10-05T14:22:12.134Z,52.49
2022-10-05T14:25:17.671Z,52.40
2022-10-05T14:28:03.116Z,52.42
2022-10-05T14:30:32.541Z,52.31
2022-10-05T14:33:06.121Z,52.33
2022-10-05T14:35:54.751Z,52.51
2022-10-05T14:38:26.320Z,52.56
2022-10-05T14:41:26.678Z,52.54
2022-10-05T14:44:26.942Z,52.62
2022-10-05T14:47:00.803Z,52.77
2022-10-05T14:49:33.586Z,52.67
2022-10-05T14:52:21.960Z,52.85
2022-10-05T14:55:00.379Z,52.88
2022-10-05T14:57:56.609Z,52.90
2022-10-05T15:00:28.276Z,52.97
2022-10-05T15:03:16.000Z,52.87
2022-10-05T15:05:49.371Z,53.05
2022-10-05T15:08:45.668Z,53.03
2022-10-05T15:11:46.079Z,53.17
2022-10-05T15:14:19.112Z,53.17
2022-10-05T15:16:49.800Z,53.33
2022-10-05T15:19:26.949Z,53.30
2022-10-05T15:22:31.975Z,53.22
2022-10-05T15:25:33.792Z,53.36
2022-10-05T15:28:27.532Z,53.43
2022-10-05T15:31:03.341Z,53.56
2022-10-05T15:33:40.878Z,53.48
2022-10-05T15:36:18.802Z,53.64
2022-10-05T15:39:34.892Z,53.79
2022-10-05T15:42:03.441Z,53.94
2022-10-05T15:44:51.524Z,54.05
2022-10-05T15:47:46.086Z,54.18
2022-10-05T15:50:25.706Z,54.14
2022-10-05T15:53:16.376Z,54.23
2022-10-05T15:55:55.698Z,54.47
2022-10-05T15:58:42.979Z,54.60
2022-10-05T16:01:39.762Z,54.57
2022-10-05T16:04:37.569Z,54.70
2022-10-05T16:07:30.947Z,54.73
2022-10-05T16:10:24.255Z,54.84
2022-10-05T16:13:11.133Z,55.01
2022-10-05T16:16:21.881Z,55.20
2022-10-05T16:19:07.915Z,55.52
2022-10-05T16:22:06.153Z,55.63
2022-10-05T16:24:49.966Z,55.73
2022-10-05T16:27:50.042Z,55.84
2022-10-05T16:30:22.923Z,56.05
2022-10-05T16:33:12.794Z,56.20
2022-10-05T16:35:52.423Z,56.32
2022-10-05T16:38:43.870Z,56.52
2022-10-05T16:41:29.045Z,56.78
2022-10-05T16:44:11.334Z,57.12
2022-10-05T16:47:27.224Z,57.40
2022-10-05T16:50:09.729Z,57.48
2022-10-05T16:52:41.921Z,57.62
2022-10-05T16:55:19.709Z,57.59
2022-10-05T16:57:55.209Z,57.88
2022-10-05T17:00:23.283Z,58.02
2022-10-05T17:03:02.409Z,58.09
2022-10-05T17:06:05.325Z,58.25
2022-10-05T17:09:01.150Z,58.35
2022-10-05T17:11:44.379Z,58.58
2022-10-05T17:14:39.733Z,58.53
2022-10-05T17:17:33.217Z,58.89
2022-10-05T17:20:07.536Z,59.00
2022-10-05T17:22:47.423Z,58.89
2022-10-05T17:25:24.225Z,59.14
2022-10-05T17:28:15.000Z,59.23
2022-10-05T17:30:51.477Z,59.32
2022-10-05T17:33:21.131Z,59.38
2022-10-05T17:36:12.444Z,59.45
2022-10-05T17:39:02.208Z,59.57
2022-10-05T17:41:31.061Z,59.70
2022-10-05T17:44:18.727Z,59.74
2022-10-05T17:46:53.791Z,59.89
2022-10-05T17:49:47.023Z,60.04
2022-10-05T17:52:45.129Z,60.12
2022-10-05T17:55:28.697Z,60.29
2022-10-05T17:57:59.216Z,60.29
2022-10-05T18:00:40.810Z,60.40
2022-10-05T18:03:33.776Z,60.45
2022-10-05T18:06:42.126Z,60.46
2022-10-05T18:09:20.729Z,60.60
2022-10-05T18:12:17.821Z,60.68
2022-10-05T18:15:10.157Z,60.77
2022-10-05T18:17:41.748Z,60.86
2022-10-05T18:20:17.698Z,60.91
2022-10-05T18:22:48.594Z,61.04
2022-10-05T18:25:31.295Z,61.09
2022-10-05T18:28:27.265Z,61.14
2022-10-05T18:31:29.160Z,61.32
2022-10-05T18:34:17.976Z,61.39
2022-10-05T18:37:12.072Z,61.45
2022-10-05T18:39:55.215Z,61.58
2022-10-05T18:42:52.873Z,61.70
2022-10-05T18:45:38.071Z,61.64
2022-10-05T18:48:37.567Z,61.70
2022-10-05T18:51:28.229Z,61.81
2022-10-05T18:54:26.873Z,61.93
2022-10-05T18:56:55.625Z,62.22
2022-10-05T18:59:51.310Z,62.33
2022-10-05T19:02:29.100Z,62.33
2022-10-05T19:05:47.974Z,62.25
2022-10-05T19:08:18.025Z,62.42
2022-10-05T19:10:57.155Z,62.56
2022-10-05T19:13:36.186Z,62.60
2022-10-05T19:16:30.348Z,62.64
2022-10-05T19:19:10.627Z,62.80
2022-10-05T19:22:10.103Z,62.72
2022-10-05T19:25:13.307Z,62.79
2022-10-05T19:27:55.339Z,62.91
2022-10-05T19:30:50.729Z,63.02
2022-10-05T19:33:37.143Z,62.98
2022-10-05T19:36:23.199Z,62.95
2022-10-05T19:39:08.288Z,63.07
2022-10-05T19:42:05.708Z,63.12
2022-10-05T19:44:45.493Z,63.19
2022-10-05T19:47:28.181Z,63.28
2022-10-05T19:50:01.561Z,63.27
2022-10-05T19:52:41.242Z,63.22
2022-10-05T19:55:12.169Z,63.29
2022-10-05T19:57:47.269Z,63.50
2022-10-05T20:00:31.752Z,63.58
2022-10-05T20:03:22.146Z,63.71
2022-10-05T20:05:59.125Z,63.72
2022-10-05T20:08:31.330Z,63.72
2022-10-05T20:11:13.184Z,63.94
2022-10-05T20:14:00.563Z,64.06
2022-10-05T20:16:48.442Z,64.05
2022-10-05T20:19:34.972Z,64.13
2022-10-05T20:22:24.213Z,64.12
2022-10-05T20:24:53.096Z,64.22
2022-10-05T20:27:48.351Z,64.20
2022-10-05T20:30:18.534Z,64.47
2022-10-05T20:32:56.960Z,64.44
2022-10-05T20:35:27.295Z,64.49
2022-10-05T20:38:04.287Z,64.59
2022-10-05T20:40:31.037Z,64.65
2022-10-05T20:42:58.279Z,64.60
2022-10-05T20:45:25.303Z,64.72
2022-10-05T20:47:53.012Z,64.81
2022-10-05T20:50:21.619Z,64.98
2022-10-05T20:52:48.222Z,65.03
2022-10-05T20:55:16.476Z,65.03
2022-10-05T20:57:45.580Z,65.27
2022-10-05T21:00:13.132Z,65.34
2022-10-05T21:02:40.705Z,65.37
2022-10-05T21:05:12.529Z,65.44
2022-10-05T21:07:40.318Z,65.52
2022-10-05T21:10:13.695Z,65.48
2022-10-05T21:12:41.559Z,65.67
2022-10-05T21:15:10.891Z,65.69
2022-10-05T21:17:38.507Z,65.64
2022-10-05T21:20:05.258Z,65.80
2022-10-05T21:22:34.989Z,65.72
2022-10-05T21:25:02.077Z,65.77
2022-10-05T21:27:29.500Z,66.01
2022-10-05T21:29:56.424Z,65.98
2022-10-05T21:32:23.707Z,66.12
2022-10-05T21:34:50.431Z,66.22
2022-10-05T21:37:19.318Z,66.20
2022-10-05T21:39:46.130Z,66.33
2022-10-05T21:42:12.501Z,66.50
2022-10-05T21:44:40.055Z,66.66
2022-10-05T21:47:07.235Z,66.74
2022-10-05T21:49:37.185Z,66.79
2022-10-05T21:52:04.732Z,66.65
2022-10-05T21:54:32.335Z,66.80
2022-10-05T21:57:00.957Z,66.87
2022-10-05T21:59:33.139Z,66.98
2022-10-05T22:02:01.824Z,67.05
2022-10-05T22:04:28.785Z,67.09
2022-10-05T22:06:56.082Z,67.14
2022-10-05T22:09:24.755Z,67.27
2022-10-05T22:11:51.918Z,67.24
2022-10-05T22:14:18.719Z,67.38
2022-10-05T22:16:45.301Z,67.45
2022-10-05T22:19:19.380Z,67.51
2022-10-05T22:21:47.754Z,67.49
2022-10-05T22:24:15.692Z,67.59
2022-10-05T22:26:47.767Z,67.59
2022-10-05T22:29:17.213Z,67.67
2022-10-05T22:31:48.167Z,67.82
2022-10-05T22:34:15.915Z,67.77
2022-10-05T22:36:42.514Z,67.77
2022-10-05T22:39:10.689Z,67.85
2022-10-05T22:41:37.562Z,67.91
2022-10-05T22:44:05.050Z,67.93
2022-10-05T22:46:33.086Z,68.00
2022-10-05T22:49:00.006Z,68.07
2022-10-05T22:51:26.419Z,68.03
2022-10-05T22:53:54.360Z,68.10
2022-10-05T22:56:20.929Z,68.17
2022-10-05T22:58:47.413Z,68.18
2022-10-05T23:01:18.230Z,68.22
2022-10-05T23:03:46.523Z,68.40
2022-10-05T23:06:15.986Z,68.35
2022-10-05T23:08:43.450Z,68.45
2022-10-05T23:11:15.824Z,68.58
2022-10-05T23:13:44.598Z,68.67
2022-10-05T23:16:14.773Z,68.71
2022-10-05T23:18:41.980Z,68.79
2022-10-05T23:21:11.356Z,68.88
2022-10-05T23:23:40.336Z,68.96
2022-10-05T23:26:09.393Z,69.00
2022-10-05T23:28:47.229Z,69.12
2022-10-05T23:31:16.687Z,69.18
2022-10-05T23:33:43.690Z,69.28
2022-10-05T23:36:17.205Z,69.24
2022-10-05T23:38:46.849Z,69.28
2022-10-05T23:41:15.496Z,69.52
2022-10-05T23:43:43.794Z,69.54
2022-10-05T23:46:13.760Z,69.38
2022-10-05T23:48:40.649Z,69.68
2022-10-05T23:51:10.216Z,69.74
2022-10-05T23:53:38.337Z,69.70
2022-10-05T23:56:05.690Z,69.83
2022-10-05T23:58:32.969Z,69.82
